Portada
METAR-TAF:

METAR-TAF

Aeroports :

Asaluyeh, Iran

latitud: 27-22-46N, longitud: 52-44-15E, altitud: 8 m

Observació

L'informe es va fer fa 14 minuts, a les 14:00 UTC
Vent 8 kt del Oest/Sud-Oest
Temperatura 38°C
Humitat 57%
Pressió 991 hPa
Visibilitat: 6000 m

METAR: OIBP 141400Z 24008KT 6000 NSC 38/28 Q0990 A2926

Hora: 18:44 (14:14 UTC)


TAF: manca

Observacions i pronòstics meteorològics de més de 4000 aeroports (METAR i TAF).

Les estacions disponibles són els punts grocs i vermells al mapa.

Posi el ratolí al punt desitjat per veure el nom de l'estació.

Feu clic per veure les observacions i els pronòstics meteorològics.

Per canviar el mapa: feu clic els botons verds amb una creu de color negre per apropar; al botó verd amb un guió per allunyar la imatge; o en les fletxes verdes per a mapes adjacents.


METAR-TAF: